Disney Wonder — C6QM8 — position and weather

sailwx.info

Track history (hours):
 
Tides and Currents Weather Stations Pressure Air Temp Water Temp Dewpoint Dewpoint Depression Visibility Wind Speed Wind Dir Waves Ship Positions

Disney Wonder

Last reported at 2019-Oct-17 14:00 UTC. Time now 2019-Oct-17 18:56 UTC.
Position N 26°06' W 113°54'.

Length 301 m; draft 8.2 m.

Type: Passenger vessel. MMSI: 308457000.

Wind from 310 at 11 knots

Barometer 1014.4 mb
Air temperature 20.0 ° C
Visibility: greater than 10.8 NM

Date/timePositionNaut miles runAvg speedWind from/ knotsBaromVisibWave heightAir tempDewpointWater temp
2019-Oct-17 14:00N 26°06' W 113°54'24720.6 310 / 111014.410.8 20.0
2019-Oct-17 02:00N 23°06' W 110°48'35 2.5 300 / 141011.410.8 23.0
2019-Oct-16 12:00N 22°54' W 110°12'12217.5 330 / 121012.410.8 23.0
2019-Oct-16 05:00N 24°06' W 112°00'14529.0 350 / 41013.410.8 22.018.918.0
2019-Oct-16 00:00N 26°18' W 113°06'24420.4 320 / 161013.427.0 24.0
2019-Oct-15 12:00N 29°36' W 115°48'10715.2 330 / 211017.410.8 19.0
2019-Oct-15 05:00N 31°06' W 116°54'6821.9 030 / 151017.410.8 19.015.615.0
2019-Oct-15 01:54N 32°11' W 117°16'820.2
2019-Oct-15 01:30N 32°19' W 117°19'918.0
2019-Oct-15 01:00N 32°28' W 117°19'1020.6
2019-Oct-15 00:30N 32°37' W 117°14'611.8
2019-Oct-15 00:00N 32°43' W 117°13'2 4.2
2019-Oct-14 23:28N 32°43' W 117°10'0 0.0
2019-Oct-14 22:58N 32°43' W 117°10'0 0.0
2019-Oct-14 22:28N 32°43' W 117°10'0 0.0
2019-Oct-14 21:58N 32°43' W 117°10'0 0.0
2019-Oct-14 21:28N 32°43' W 117°10'0 0.0
2019-Oct-14 20:58N 32°43' W 117°10'0 0.0
2019-Oct-14 20:28N 32°43' W 117°10'0 0.0
2019-Oct-14 19:58N 32°43' W 117°10'0 0.0
2019-Oct-14 19:28N 32°43' W 117°10'0 0.0
2019-Oct-14 18:58N 32°43' W 117°10'0 0.0
2019-Oct-14 18:28N 32°43' W 117°10'0 0.0
2019-Oct-14 17:58N 32°43' W 117°10'0 0.0
2019-Oct-14 17:28N 32°43' W 117°10'0 0.0
2019-Oct-14 16:58N 32°43' W 117°10'0 0.0
2019-Oct-14 16:28N 32°43' W 117°10'0 0.0
2019-Oct-14 15:58N 32°43' W 117°10'0 0.0
2019-Oct-14 15:28N 32°43' W 117°10'0 0.0
2019-Oct-14 14:58N 32°43' W 117°10'0 0.0
2019-Oct-14 14:28N 32°43' W 117°10'0 0.0
2019-Oct-14 13:58N 32°43' W 117°10'0 0.2
2019-Oct-14 13:30N 32°43' W 117°11'3 5.8
2019-Oct-14 13:01N 32°42' W 117°14'511.0
2019-Oct-14 12:31N 32°37' W 117°14'611.6
2019-Oct-14 12:00N 32°32' W 117°19'714.5
2019-Oct-14 11:30N 32°26' W 117°22'917.4
2019-Oct-14 11:00N 32°17' W 117°20'917.3
2019-Oct-14 10:29N 32°08' W 117°17'31618.0
2019-Oct-13 17:00N 27°18' W 114°54'8220.4 170 / 91014.410.8 19.015.615.0
2019-Oct-13 13:00N 26°12' W 114°00'17021.2 020 / 131013.410.8 21.0
2019-Oct-13 05:00N 24°06' W 111°54'9719.5 100 / 201014.4 5.4 24.022.520.0
2019-Oct-13 00:00N 23°00' W 110°36'101 5.1 020 / 61012.4 5.4 25.0
2019-Oct-12 04:00N 24°06' W 112°00'4916.2 350 / 111013.410.8 22.020.518.0
2019-Oct-12 01:00N 24°42' W 112°36'23619.7 290 / 151012.410.8 23.0
2019-Oct-11 13:00N 27°48' W 115°18'25110.8 360 / 201015.410.8 20.0 15.0
2019-Oct-10 13:45N 31°47' W 116°44'3 9.6
2019-Oct-10 13:25N 31°46' W 116°47'32 5.2
2019-Oct-10 07:20N 32°04' W 117°18'4 9.7
2019-Oct-10 06:58N 32°06' W 117°22'5 9.8
2019-Oct-10 06:27N 32°08' W 117°27'5 9.9
2019-Oct-10 05:57N 32°11' W 117°32'510.2
2019-Oct-10 05:30N 32°13' W 117°37'5 9.9
2019-Oct-10 05:00N 32°16' W 117°41'6462.0
2019-Oct-10 05:00N 32°12' W 117°36'1122.7 020 / 141015.410.8 18.016.315.0
2019-Oct-10 04:30N 32°20' W 117°45'5 9.5
2019-Oct-10 04:00N 32°24' W 117°48'6385.0
2019-Oct-10 04:00N 32°18' W 117°48'918.9 030 / 91015.410.8 18.016.315.0
2019-Oct-10 03:30N 32°26' W 117°43'5 9.9
2019-Oct-10 03:00N 32°28' W 117°38'5 9.8
2019-Oct-10 02:30N 32°30' W 117°32'5 9.7
2019-Oct-10 02:00N 32°32' W 117°27'5 9.6
2019-Oct-10 01:30N 32°34' W 117°22'5 9.7
2019-Oct-10 01:00N 32°36' W 117°17'4 8.7
2019-Oct-10 00:30N 32°40' W 117°14'4 8.0
2019-Oct-10 00:00N 32°43' W 117°11'1 1.2
2019-Oct-09 23:29N 32°43' W 117°10'0 0.0
2019-Oct-09 22:59N 32°43' W 117°10'0 0.0
2019-Oct-09 22:29N 32°43' W 117°10'0 0.0
2019-Oct-09 21:59N 32°43' W 117°10'0 0.0
2019-Oct-09 21:29N 32°43' W 117°10'0 0.0
2019-Oct-09 20:59N 32°43' W 117°10'0 0.0
2019-Oct-09 20:29N 32°43' W 117°10'0 0.0
2019-Oct-09 19:59N 32°43' W 117°10'0 0.0
2019-Oct-09 19:29N 32°43' W 117°10'0 0.0
2019-Oct-09 18:59N 32°43' W 117°10'0 0.0
2019-Oct-09 18:29N 32°43' W 117°10'0 0.0
2019-Oct-09 17:59N 32°43' W 117°10'0 0.0
2019-Oct-09 17:29N 32°43' W 117°10'0 0.0
2019-Oct-09 16:59N 32°43' W 117°10'0 0.0
2019-Oct-09 16:29N 32°43' W 117°10'0 0.0
2019-Oct-09 15:59N 32°43' W 117°10'0 0.0
2019-Oct-09 15:29N 32°43' W 117°10'0 0.0
2019-Oct-09 14:59N 32°43' W 117°10'0 0.0
2019-Oct-09 14:29N 32°43' W 117°10'0 0.0
2019-Oct-09 13:59N 32°43' W 117°10'1 2.5
2019-Oct-09 13:30N 32°43' W 117°12'5 9.1
2019-Oct-09 13:00N 32°39' W 117°14'5 9.3
2019-Oct-09 12:31N 32°36' W 117°18'815.4
2019-Oct-09 12:01N 32°32' W 117°26'815.0
2019-Oct-09 11:31N 32°28' W 117°33'714.7
2019-Oct-09 11:01N 32°21' W 117°37'815.1
2019-Oct-09 10:31N 32°14' W 117°38'612.1
2019-Oct-09 10:01N 32°08' W 117°39'4 8.7
2019-Oct-09 09:30N 32°07' W 117°44'2 4.4
2019-Oct-09 09:00N 32°09' W 117°46'4 9.0
2019-Oct-09 08:30N 32°08' W 117°41'3 6.6
2019-Oct-09 08:01N 32°06' W 117°38'5 9.0
2019-Oct-09 07:31N 32°01' W 117°39'4 9.0
2019-Oct-09 07:00N 31°57' W 117°40'4 9.0
2019-Oct-09 06:30N 31°53' W 117°41'5 9.2
2019-Oct-09 06:00N 31°48' W 117°42'018.8
2019-Oct-09 06:00N 31°48' W 117°42'5 9.4 270 / 101016.410.8 18.018.014.0
2019-Oct-09 05:30N 31°43' W 117°42'5 9.2
2019-Oct-09 05:00N 31°39' W 117°42'5 9.3
2019-Oct-09 04:30N 31°34' W 117°42'5 9.1
2019-Oct-09 04:00N 31°31' W 117°39'3160.2
2019-Oct-09 04:00N 31°30' W 117°36'714.2 150 / 91016.410.8 18.016.314.0
2019-Oct-09 03:30N 31°31' W 117°28'1121.5
2019-Oct-09 03:00N 31°39' W 117°20'1121.3
2019-Oct-09 02:30N 31°47' W 117°11'1020.7
2019-Oct-09 02:00N 31°54' W 117°02'1020.1
2019-Oct-09 01:30N 31°54' W 116°50'8 0.7
2019-Oct-08 13:56N 31°48' W 116°43'615.2
2019-Oct-08 13:31N 31°44' W 116°48'815.8
2019-Oct-08 13:01N 31°36' W 116°49'816.1
2019-Oct-08 12:30N 31°28' W 116°48'713.5
2019-Oct-08 12:00N 31°24' W 116°42'687.6 340 / 101015.427.0 19.0
2019-Oct-08 11:55N 31°19' W 116°47'716.1
2019-Oct-08 11:30N 31°12' W 116°45'815.9
2019-Oct-08 11:00N 31°05' W 116°43'815.7
2019-Oct-08 10:29N 30°57' W 116°41'815.9
2019-Oct-08 10:00N 30°49' W 116°39'1015.8
2019-Oct-08 09:24N 30°40' W 116°37'615.7
2019-Oct-08 09:01N 30°34' W 116°36'815.8
2019-Oct-08 08:28N 30°26' W 116°34'715.9
2019-Oct-08 08:00N 30°18' W 116°32'1116.3
2019-Oct-08 07:21N 30°08' W 116°29'616.5
2019-Oct-08 07:01N 30°02' W 116°28'1116.9
2019-Oct-08 06:23N 29°52' W 116°25'1217.2
2019-Oct-08 05:40N 29°40' W 116°23'317.1
2019-Oct-08 05:30N 29°37' W 116°22'1426.8
2019-Oct-08 05:00N 29°24' W 116°18'6817.0 220 / 91016.410.8 21.019.416.0
2019-Oct-08 01:00N 28°18' W 116°00'3 5.8 310 / 181015.427.0 21.0
2019-Oct-08 00:34N 28°16' W 116°02'317.1
2019-Oct-08 00:22N 28°13' W 116°01'817.4
2019-Oct-07 23:56N 28°07' W 115°55'3717.4
2019-Oct-07 21:49N 27°37' W 115°30'  
Track history (hours):
 
Tides and Currents Weather Stations Pressure Air Temp Water Temp Dewpoint Dewpoint Depression Visibility Wind Speed Wind Dir Waves Ship Positions

Disney Wonder

Last reported at 2019-Oct-17 14:00 UTC. Time now 2019-Oct-17 18:56 UTC.
Position N 26°06' W 113°54'.

Length 301 m; draft 8.2 m.

Type: Passenger vessel. MMSI: 308457000.

Wind from 310 at 11 knots

Barometer 1014.4 mb
Air temperature 20.0 ° C
Visibility: greater than 10.8 NM

Date/timePositionNaut miles runAvg speedWind from/ knotsBaromVisibWave heightAir tempDewpointWater temp
2019-Oct-17 14:00N 26°06' W 113°54'24720.6 310 / 111014.410.8 20.0
2019-Oct-17 02:00N 23°06' W 110°48'35 2.5 300 / 141011.410.8 23.0
2019-Oct-16 12:00N 22°54' W 110°12'12217.5 330 / 121012.410.8 23.0
2019-Oct-16 05:00N 24°06' W 112°00'14529.0 350 / 41013.410.8 22.018.918.0
2019-Oct-16 00:00N 26°18' W 113°06'24420.4 320 / 161013.427.0 24.0
2019-Oct-15 12:00N 29°36' W 115°48'10715.2 330 / 211017.410.8 19.0
2019-Oct-15 05:00N 31°06' W 116°54'6821.9 030 / 151017.410.8 19.015.615.0
2019-Oct-15 01:54N 32°11' W 117°16'820.2
2019-Oct-15 01:30N 32°19' W 117°19'918.0
2019-Oct-15 01:00N 32°28' W 117°19'1020.6
2019-Oct-15 00:30N 32°37' W 117°14'611.8
2019-Oct-15 00:00N 32°43' W 117°13'2 4.2
2019-Oct-14 23:28N 32°43' W 117°10'0 0.0
2019-Oct-14 22:58N 32°43' W 117°10'0 0.0
2019-Oct-14 22:28N 32°43' W 117°10'0 0.0
2019-Oct-14 21:58N 32°43' W 117°10'0 0.0
2019-Oct-14 21:28N 32°43' W 117°10'0 0.0
2019-Oct-14 20:58N 32°43' W 117°10'0 0.0
2019-Oct-14 20:28N 32°43' W 117°10'0 0.0
2019-Oct-14 19:58N 32°43' W 117°10'0 0.0
2019-Oct-14 19:28N 32°43' W 117°10'0 0.0
2019-Oct-14 18:58N 32°43' W 117°10'0 0.0
2019-Oct-14 18:28N 32°43' W 117°10'0 0.0
2019-Oct-14 17:58N 32°43' W 117°10'0 0.0
2019-Oct-14 17:28N 32°43' W 117°10'0 0.0
2019-Oct-14 16:58N 32°43' W 117°10'0 0.0
2019-Oct-14 16:28N 32°43' W 117°10'0 0.0
2019-Oct-14 15:58N 32°43' W 117°10'0 0.0
2019-Oct-14 15:28N 32°43' W 117°10'0 0.0
2019-Oct-14 14:58N 32°43' W 117°10'0 0.0
2019-Oct-14 14:28N 32°43' W 117°10'0 0.0
2019-Oct-14 13:58N 32°43' W 117°10'0 0.2
2019-Oct-14 13:30N 32°43' W 117°11'3 5.8
2019-Oct-14 13:01N 32°42' W 117°14'511.0
2019-Oct-14 12:31N 32°37' W 117°14'611.6
2019-Oct-14 12:00N 32°32' W 117°19'714.5
2019-Oct-14 11:30N 32°26' W 117°22'917.4
2019-Oct-14 11:00N 32°17' W 117°20'917.3
2019-Oct-14 10:29N 32°08' W 117°17'31618.0
2019-Oct-13 17:00N 27°18' W 114°54'8220.4 170 / 91014.410.8 19.015.615.0
2019-Oct-13 13:00N 26°12' W 114°00'17021.2 020 / 131013.410.8 21.0
2019-Oct-13 05:00N 24°06' W 111°54'9719.5 100 / 201014.4 5.4 24.022.520.0
2019-Oct-13 00:00N 23°00' W 110°36'101 5.1 020 / 61012.4 5.4 25.0
2019-Oct-12 04:00N 24°06' W 112°00'4916.2 350 / 111013.410.8 22.020.518.0
2019-Oct-12 01:00N 24°42' W 112°36'23619.7 290 / 151012.410.8 23.0
2019-Oct-11 13:00N 27°48' W 115°18'25110.8 360 / 201015.410.8 20.0 15.0
2019-Oct-10 13:45N 31°47' W 116°44'3 9.6
2019-Oct-10 13:25N 31°46' W 116°47'32 5.2
2019-Oct-10 07:20N 32°04' W 117°18'4 9.7
2019-Oct-10 06:58N 32°06' W 117°22'5 9.8
2019-Oct-10 06:27N 32°08' W 117°27'5 9.9
2019-Oct-10 05:57N 32°11' W 117°32'510.2
2019-Oct-10 05:30N 32°13' W 117°37'5 9.9
2019-Oct-10 05:00N 32°16' W 117°41'6462.0
2019-Oct-10 05:00N 32°12' W 117°36'1122.7 020 / 141015.410.8 18.016.315.0
2019-Oct-10 04:30N 32°20' W 117°45'5 9.5
2019-Oct-10 04:00N 32°24' W 117°48'6385.0
2019-Oct-10 04:00N 32°18' W 117°48'918.9 030 / 91015.410.8 18.016.315.0
2019-Oct-10 03:30N 32°26' W 117°43'5 9.9
2019-Oct-10 03:00N 32°28' W 117°38'5 9.8
2019-Oct-10 02:30N 32°30' W 117°32'5 9.7
2019-Oct-10 02:00N 32°32' W 117°27'5 9.6
2019-Oct-10 01:30N 32°34' W 117°22'5 9.7
2019-Oct-10 01:00N 32°36' W 117°17'4 8.7
2019-Oct-10 00:30N 32°40' W 117°14'4 8.0
2019-Oct-10 00:00N 32°43' W 117°11'1 1.2
2019-Oct-09 23:29N 32°43' W 117°10'0 0.0
2019-Oct-09 22:59N 32°43' W 117°10'0 0.0
2019-Oct-09 22:29N 32°43' W 117°10'0 0.0
2019-Oct-09 21:59N 32°43' W 117°10'0 0.0
2019-Oct-09 21:29N 32°43' W 117°10'0 0.0
2019-Oct-09 20:59N 32°43' W 117°10'0 0.0
2019-Oct-09 20:29N 32°43' W 117°10'0 0.0
2019-Oct-09 19:59N 32°43' W 117°10'0 0.0
2019-Oct-09 19:29N 32°43' W 117°10'0 0.0
2019-Oct-09 18:59N 32°43' W 117°10'0 0.0
2019-Oct-09 18:29N 32°43' W 117°10'0 0.0
2019-Oct-09 17:59N 32°43' W 117°10'0 0.0
2019-Oct-09 17:29N 32°43' W 117°10'0 0.0
2019-Oct-09 16:59N 32°43' W 117°10'0 0.0
2019-Oct-09 16:29N 32°43' W 117°10'0 0.0
2019-Oct-09 15:59N 32°43' W 117°10'0 0.0
2019-Oct-09 15:29N 32°43' W 117°10'0 0.0
2019-Oct-09 14:59N 32°43' W 117°10'0 0.0
2019-Oct-09 14:29N 32°43' W 117°10'0 0.0
2019-Oct-09 13:59N 32°43' W 117°10'1 2.5
2019-Oct-09 13:30N 32°43' W 117°12'5 9.1
2019-Oct-09 13:00N 32°39' W 117°14'5 9.3
2019-Oct-09 12:31N 32°36' W 117°18'815.4
2019-Oct-09 12:01N 32°32' W 117°26'815.0
2019-Oct-09 11:31N 32°28' W 117°33'714.7
2019-Oct-09 11:01N 32°21' W 117°37'815.1
2019-Oct-09 10:31N 32°14' W 117°38'612.1
2019-Oct-09 10:01N 32°08' W 117°39'4 8.7
2019-Oct-09 09:30N 32°07' W 117°44'2 4.4
2019-Oct-09 09:00N 32°09' W 117°46'4 9.0
2019-Oct-09 08:30N 32°08' W 117°41'3 6.6
2019-Oct-09 08:01N 32°06' W 117°38'5 9.0
2019-Oct-09 07:31N 32°01' W 117°39'4 9.0
2019-Oct-09 07:00N 31°57' W 117°40'4 9.0
2019-Oct-09 06:30N 31°53' W 117°41'5 9.2
2019-Oct-09 06:00N 31°48' W 117°42'018.8
2019-Oct-09 06:00N 31°48' W 117°42'5 9.4 270 / 101016.410.8 18.018.014.0
2019-Oct-09 05:30N 31°43' W 117°42'5 9.2
2019-Oct-09 05:00N 31°39' W 117°42'5 9.3
2019-Oct-09 04:30N 31°34' W 117°42'5 9.1
2019-Oct-09 04:00N 31°31' W 117°39'3160.2
2019-Oct-09 04:00N 31°30' W 117°36'714.2 150 / 91016.410.8 18.016.314.0
2019-Oct-09 03:30N 31°31' W 117°28'1121.5
2019-Oct-09 03:00N 31°39' W 117°20'1121.3
2019-Oct-09 02:30N 31°47' W 117°11'1020.7
2019-Oct-09 02:00N 31°54' W 117°02'1020.1
2019-Oct-09 01:30N 31°54' W 116°50'8 0.7
2019-Oct-08 13:56N 31°48' W 116°43'615.2
2019-Oct-08 13:31N 31°44' W 116°48'815.8
2019-Oct-08 13:01N 31°36' W 116°49'816.1
2019-Oct-08 12:30N 31°28' W 116°48'713.5
2019-Oct-08 12:00N 31°24' W 116°42'687.6 340 / 101015.427.0 19.0
2019-Oct-08 11:55N 31°19' W 116°47'716.1
2019-Oct-08 11:30N 31°12' W 116°45'815.9
2019-Oct-08 11:00N 31°05' W 116°43'815.7
2019-Oct-08 10:29N 30°57' W 116°41'815.9
2019-Oct-08 10:00N 30°49' W 116°39'1015.8
2019-Oct-08 09:24N 30°40' W 116°37'615.7
2019-Oct-08 09:01N 30°34' W 116°36'815.8
2019-Oct-08 08:28N 30°26' W 116°34'715.9
2019-Oct-08 08:00N 30°18' W 116°32'1116.3
2019-Oct-08 07:21N 30°08' W 116°29'616.5
2019-Oct-08 07:01N 30°02' W 116°28'1116.9
2019-Oct-08 06:23N 29°52' W 116°25'1217.2
2019-Oct-08 05:40N 29°40' W 116°23'317.1
2019-Oct-08 05:30N 29°37' W 116°22'1426.8
2019-Oct-08 05:00N 29°24' W 116°18'6817.0 220 / 91016.410.8 21.019.416.0
2019-Oct-08 01:00N 28°18' W 116°00'3 5.8 310 / 181015.427.0 21.0
2019-Oct-08 00:34N 28°16' W 116°02'317.1
2019-Oct-08 00:22N 28°13' W 116°01'817.4
2019-Oct-07 23:56N 28°07' W 115°55'3717.4
2019-Oct-07 21:49N 27°37' W 115°30'  

Dump ship's entire track history